Time;durP1;ratioP1;P1;durP2;ratioP2;P2;SDS_P1;SDS_P2;PMS_P1;PMS_P2;Temp;Humidity;BMP_temperature;BMP_pressure;BME280_temperature;BME280_humidity;BME280_pressure;Samples;Min_cycle;Max_cycle;Signal;HPM_P1;HPM_P2
2022/08/07 00:00:54;;;;;;;23.53;21.10;;;;;;;;;;2124289;27;20807;-71
2022/08/07 00:01:55;;;;;;;22.40;20.50;;;;;;;;;;2125277;27;20195;-71
2022/08/07 00:02:56;;;;;;;22.43;20.43;;;;;;;;;;2133496;27;20413;-71
2022/08/07 00:03:57;;;;;;;22.33;20.53;;;;;;;;;;2133505;27;20219;-71
2022/08/07 00:04:58;;;;;;;22.37;20.53;;;;;;;;;;2125006;27;20429;-71
2022/08/07 00:05:59;;;;;;;21.93;20.10;;;;;;;;;;2124347;27;20696;-71
2022/08/07 00:07:01;;;;;;;22.97;20.97;;;;;;;;;;2133573;27;20841;-71
2022/08/07 00:08:02;;;;;;;22.37;20.27;;;;;;;;;;2133553;27;20180;-71
2022/08/07 00:09:04;;;;;;;22.17;20.07;;;;;;;;;;2133391;27;20421;-71
2022/08/07 00:10:05;;;;;;;21.20;19.40;;;;;;;;;;2133438;27;20283;-71
2022/08/07 00:11:07;;;;;;;21.13;19.43;;;;;;;;;;2133548;27;20412;-71
2022/08/07 00:12:08;;;;;;;21.60;19.80;;;;;;;;;;2133515;27;20519;-71
2022/08/07 00:13:09;;;;;;;22.17;20.13;;;;;;;;;;2124171;27;20802;-71
2022/08/07 00:14:09;;;;;;;21.47;19.50;;;;;;;;;;2124397;27;20219;-71
2022/08/07 00:15:11;;;;;;;21.73;19.73;;;;;;;;;;2133359;27;20947;-71
2022/08/07 00:16:11;;;;;;;22.13;20.10;;;;;;;;;;2133445;27;20183;-71
2022/08/07 00:17:13;;;;;;;21.60;19.80;;;;;;;;;;2133422;27;20815;-71
2022/08/07 00:18:14;;;;;;;22.33;20.43;;;;;;;;;;2123796;27;20228;-71
2022/08/07 00:19:15;;;;;;;21.37;19.63;;;;;;;;;;2115676;28;20443;-71
2022/08/07 00:20:16;;;;;;;21.87;19.97;;;;;;;;;;2124221;27;20984;-71
2022/08/07 00:21:17;;;;;;;21.53;19.63;;;;;;;;;;2133476;27;20820;-71
2022/08/07 00:22:20;;;;;;;21.77;19.80;;;;;;;;;;2124063;27;20673;-71
2022/08/07 00:23:20;;;;;;;21.33;19.57;;;;;;;;;;2115285;28;20439;-71
2022/08/07 00:24:22;;;;;;;22.57;20.30;;;;;;;;;;2124153;27;20513;-71
2022/08/07 00:25:23;;;;;;;21.37;19.57;;;;;;;;;;2133351;27;20270;-71
2022/08/07 00:26:24;;;;;;;21.43;19.63;;;;;;;;;;2133393;27;20473;-71
2022/08/07 00:27:25;;;;;;;21.80;20.00;;;;;;;;;;2123992;27;20465;-71
2022/08/07 00:28:26;;;;;;;21.53;19.83;;;;;;;;;;2124212;27;20420;-71
2022/08/07 00:29:28;;;;;;;22.03;19.93;;;;;;;;;;2133291;27;20186;-71
2022/08/07 00:30:29;;;;;;;21.80;19.80;;;;;;;;;;2133241;27;20915;-71
2022/08/07 00:31:30;;;;;;;22.07;20.17;;;;;;;;;;2123734;27;20435;-71
2022/08/07 00:32:31;;;;;;;21.97;19.87;;;;;;;;;;2115613;28;20200;-71
2022/08/07 00:33:33;;;;;;;21.50;19.60;;;;;;;;;;2124135;27;20825;-71
2022/08/07 00:34:33;;;;;;;21.63;19.63;;;;;;;;;;2133470;27;20199;-71
2022/08/07 00:35:34;;;;;;;21.53;19.63;;;;;;;;;;2133321;27;20429;-71
2022/08/07 00:36:35;;;;;;;21.20;19.27;;;;;;;;;;2133306;27;20191;-71
2022/08/07 00:37:38;;;;;;;21.27;19.50;;;;;;;;;;2123990;27;20426;-71
2022/08/07 00:38:39;;;;;;;21.37;19.67;;;;;;;;;;2115622;28;20561;-71
2022/08/07 00:39:40;;;;;;;21.50;19.70;;;;;;;;;;2124388;27;20924;-71
2022/08/07 00:40:41;;;;;;;21.80;19.70;;;;;;;;;;2133243;27;20428;-71
2022/08/07 00:41:48;;;;;;;20.77;19.17;;;;;;;;;;2133215;27;20493;-71
2022/08/07 00:42:48;;;;;;;21.53;19.27;;;;;;;;;;2123979;27;20195;-71
2022/08/07 00:43:50;;;;;;;21.10;19.43;;;;;;;;;;2124314;27;20422;-71
2022/08/07 00:44:50;;;;;;;21.03;19.33;;;;;;;;;;2133176;27;20278;-71
2022/08/07 00:45:51;;;;;;;21.37;19.57;;;;;;;;;;2123935;27;20438;-71
2022/08/07 00:46:52;;;;;;;21.63;19.83;;;;;;;;;;2124043;27;20188;-71
2022/08/07 00:47:53;;;;;;;21.33;19.43;;;;;;;;;;2133018;27;20898;-71
2022/08/07 00:48:55;;;;;;;21.13;19.33;;;;;;;;;;2133233;27;20227;-71
2022/08/07 00:49:55;;;;;;;21.20;19.40;;;;;;;;;;2123535;27;20537;-71
2022/08/07 00:50:56;;;;;;;21.97;19.83;;;;;;;;;;2124384;27;20972;-71
2022/08/07 00:51:57;;;;;;;22.43;20.23;;;;;;;;;;2133277;27;20539;-71
2022/08/07 00:53:00;;;;;;;21.30;19.50;;;;;;;;;;2123872;27;20517;-71
2022/08/07 00:54:00;;;;;;;22.13;19.93;;;;;;;;;;2124142;27;20263;-71
2022/08/07 00:55:02;;;;;;;21.33;19.63;;;;;;;;;;2133143;27;20413;-71
2022/08/07 00:56:03;;;;;;;22.67;20.40;;;;;;;;;;2123868;27;20203;-71
2022/08/07 00:57:05;;;;;;;21.80;19.80;;;;;;;;;;2115345;28;20438;-71
2022/08/07 00:58:06;;;;;;;21.87;20.07;;;;;;;;;;2124085;27;20192;-71
2022/08/07 00:59:08;;;;;;;23.03;20.90;;;;;;;;;;2123620;27;20520;-71
2022/08/07 01:00:09;;;;;;;21.60;19.87;;;;;;;;;;2124137;27;20627;-71
2022/08/07 01:01:11;;;;;;;21.77;19.93;;;;;;;;;;2124114;27;20867;-71
2022/08/07 01:02:11;;;;;;;21.60;19.77;;;;;;;;;;2123799;27;20450;-71
2022/08/07 01:03:13;;;;;;;22.33;20.23;;;;;;;;;;2132505;27;20427;-71
2022/08/07 01:04:14;;;;;;;22.03;19.90;;;;;;;;;;2133002;27;20282;-71
2022/08/07 01:05:15;;;;;;;22.40;20.50;;;;;;;;;;2133047;27;20489;-71
2022/08/07 01:06:16;;;;;;;21.80;19.70;;;;;;;;;;2133128;27;20433;-71
2022/08/07 01:07:18;;;;;;;21.57;19.77;;;;;;;;;;2123273;27;20425;-71
2022/08/07 01:08:20;;;;;;;21.30;19.60;;;;;;;;;;2124243;27;20212;-71
2022/08/07 01:09:23;;;;;;;21.93;20.03;;;;;;;;;;2133102;27;20473;-71
2022/08/07 01:10:23;;;;;;;21.93;19.97;;;;;;;;;;2132977;27;20424;-71
2022/08/07 01:11:25;;;;;;;22.43;20.37;;;;;;;;;;2123417;27;20430;-71
2022/08/07 01:12:25;;;;;;;22.23;20.43;;;;;;;;;;2115255;28;20204;-71
2022/08/07 01:13:27;;;;;;;21.97;20.07;;;;;;;;;;2123661;27;20524;-71
2022/08/07 01:14:28;;;;;;;22.50;20.53;;;;;;;;;;2114793;28;20406;-71
2022/08/07 01:15:31;;;;;;;22.60;20.60;;;;;;;;;;2115170;28;20447;-71
2022/08/07 01:16:32;;;;;;;21.77;20.03;;;;;;;;;;2115472;27;20193;-71
2022/08/07 01:17:34;;;;;;;22.30;20.40;;;;;;;;;;2123613;27;20422;-71
2022/08/07 01:18:35;;;;;;;24.43;20.47;;;;;;;;;;2123788;27;20465;-71
2022/08/07 01:19:37;;;;;;;22.57;20.67;;;;;;;;;;2123616;27;20437;-71
2022/08/07 01:20:44;;;;;;;22.10;20.30;;;;;;;;;;2115109;28;20208;-71
2022/08/07 01:21:47;;;;;;;23.17;21.07;;;;;;;;;;2116017;27;20963;-71
2022/08/07 01:22:47;;;;;;;21.77;19.90;;;;;;;;;;2114608;27;20443;-71
2022/08/07 01:23:50;;;;;;;23.23;21.13;;;;;;;;;;2124015;27;20433;-70
2022/08/07 01:24:51;;;;;;;22.70;20.63;;;;;;;;;;2132379;27;20432;-71
2022/08/07 01:25:52;;;;;;;22.77;20.57;;;;;;;;;;2123652;27;20507;-71
2022/08/07 01:26:53;;;;;;;22.50;20.43;;;;;;;;;;2115177;28;20193;-71
2022/08/07 01:27:56;;;;;;;21.67;19.97;;;;;;;;;;2123565;27;21082;-71
2022/08/07 01:28:56;;;;;;;21.57;19.97;;;;;;;;;;2123565;27;20441;-71
2022/08/07 01:30:02;;;;;;;22.43;20.53;;;;;;;;;;2115519;27;20875;-71
2022/08/07 01:31:03;;;;;;;22.30;20.37;;;;;;;;;;2123665;27;20451;-71
2022/08/07 01:32:07;;;;;;;22.53;20.43;;;;;;;;;;2123727;27;20869;-71
2022/08/07 01:33:07;;;;;;;22.30;20.33;;;;;;;;;;2123559;27;20456;-71
2022/08/07 01:34:09;;;;;;;21.73;20.03;;;;;;;;;;2123762;27;20505;-71
2022/08/07 01:35:14;;;;;;;22.13;20.40;;;;;;;;;;2123658;27;20181;-71
2022/08/07 01:36:15;;;;;;;22.13;20.27;;;;;;;;;;2115075;28;20488;-71
2022/08/07 01:37:18;;;;;;;21.23;19.50;;;;;;;;;;2115223;27;20697;-71
2022/08/07 01:38:21;;;;;;;22.10;19.73;;;;;;;;;;2115167;28;20438;-71
2022/08/07 01:39:21;;;;;;;21.70;20.00;;;;;;;;;;2123698;27;20520;-71
2022/08/07 01:40:45;;;;;;;22.03;19.90;;;;;;;;;;2123918;27;20505;-71
2022/08/07 01:41:46;;;;;;;21.70;19.80;;;;;;;;;;2115218;28;20484;-71
2022/08/07 01:42:48;;;;;;;22.43;20.30;;;;;;;;;;2114545;28;20841;-71
2022/08/07 01:43:49;;;;;;;22.27;20.37;;;;;;;;;;2114456;28;20561;-71
2022/08/07 01:44:51;;;;;;;21.63;19.70;;;;;;;;;;2123753;27;20422;-71
2022/08/07 01:45:53;;;;;;;21.60;19.67;;;;;;;;;;2132904;27;20420;-71
2022/08/07 01:46:54;;;;;;;21.83;19.83;;;;;;;;;;2123466;27;21006;-71
2022/08/07 01:47:56;;;;;;;22.63;20.53;;;;;;;;;;2114999;28;20893;-71
2022/08/07 01:48:57;;;;;;;22.53;20.43;;;;;;;;;;2123449;27;20798;-71
2022/08/07 01:50:00;;;;;;;22.30;19.87;;;;;;;;;;2123496;27;20538;-71
2022/08/07 01:51:02;;;;;;;22.37;20.27;;;;;;;;;;2115047;28;20853;-71
2022/08/07 01:52:05;;;;;;;22.70;20.80;;;;;;;;;;2123417;27;20430;-71
2022/08/07 01:53:08;;;;;;;23.30;21.43;;;;;;;;;;2115152;28;20454;-71
2022/08/07 01:54:10;;;;;;;23.50;21.27;;;;;;;;;;2115098;28;20443;-71
2022/08/07 01:55:13;;;;;;;23.03;21.33;;;;;;;;;;2115275;28;20462;-71
2022/08/07 01:56:16;;;;;;;23.83;21.93;;;;;;;;;;2123383;27;21039;-71
2022/08/07 01:57:19;;;;;;;23.10;21.10;;;;;;;;;;2123638;27;20445;-71
2022/08/07 01:58:22;;;;;;;23.60;21.73;;;;;;;;;;2123386;27;21047;-71
2022/08/07 01:59:26;;;;;;;21.83;20.13;;;;;;;;;;2114822;28;20509;-71
2022/08/07 02:00:30;;;;;;;23.13;21.33;;;;;;;;;;2123358;27;20422;-71
2022/08/07 02:01:38;;;;;;;23.13;20.83;;;;;;;;;;2124063;27;20461;-71
2022/08/07 02:02:43;;;;;;;22.33;20.57;;;;;;;;;;2132135;27;20844;-71
2022/08/07 02:03:48;;;;;;;22.33;20.43;;;;;;;;;;2122745;27;20472;-71
2022/08/07 02:04:52;;;;;;;23.20;21.23;;;;;;;;;;2115305;27;20784;-71
2022/08/07 02:05:54;;;;;;;22.77;21.00;;;;;;;;;;2115346;28;20538;-71
2022/08/07 02:06:59;;;;;;;24.20;22.03;;;;;;;;;;2115233;28;20426;-71
2022/08/07 02:08:02;;;;;;;22.53;20.60;;;;;;;;;;2123560;27;20504;-71
2022/08/07 02:09:11;;;;;;;22.60;20.70;;;;;;;;;;2122722;27;20445;-71
2022/08/07 02:10:13;;;;;;;22.57;20.57;;;;;;;;;;2123495;27;20434;-71
2022/08/07 02:11:14;;;;;;;23.13;21.23;;;;;;;;;;2123332;27;20528;-71
2022/08/07 02:12:19;;;;;;;22.87;21.07;;;;;;;;;;2114827;28;20472;-71
2022/08/07 02:13:26;;;;;;;22.63;20.40;;;;;;;;;;2116254;28;20193;-71
2022/08/07 02:14:28;;;;;;;22.50;20.70;;;;;;;;;;2123487;27;20465;-71
2022/08/07 02:15:29;;;;;;;23.03;21.03;;;;;;;;;;2131965;27;20424;-71
2022/08/07 02:16:31;;;;;;;23.30;21.17;;;;;;;;;;2123306;27;20910;-71
2022/08/07 02:17:32;;;;;;;22.97;21.17;;;;;;;;;;2123518;28;20457;-71
2022/08/07 02:18:36;;;;;;;23.13;20.80;;;;;;;;;;2123331;28;20441;-71
2022/08/07 02:19:37;;;;;;;22.53;20.83;;;;;;;;;;2123730;27;20434;-71
2022/08/07 02:20:39;;;;;;;23.03;21.03;;;;;;;;;;2122911;28;20963;-71
2022/08/07 02:21:40;;;;;;;23.03;21.13;;;;;;;;;;2123334;28;20477;-71
2022/08/07 02:22:42;;;;;;;24.50;21.77;;;;;;;;;;2114390;28;20485;-71
2022/08/07 02:23:44;;;;;;;23.33;21.33;;;;;;;;;;2115028;28;20209;-71
2022/08/07 02:24:48;;;;;;;22.63;20.90;;;;;;;;;;2123306;27;20430;-71
2022/08/07 02:25:49;;;;;;;23.17;21.37;;;;;;;;;;2131965;27;20425;-71
2022/08/07 02:26:51;;;;;;;22.90;20.97;;;;;;;;;;2123255;28;20438;-71
2022/08/07 02:27:53;;;;;;;23.77;21.67;;;;;;;;;;2114833;28;20232;-71
2022/08/07 02:28:57;;;;;;;22.80;20.80;;;;;;;;;;2114610;28;20446;-71
2022/08/07 02:29:58;;;;;;;22.40;20.70;;;;;;;;;;2114998;28;20450;-71
2022/08/07 02:31:07;;;;;;;22.47;20.77;;;;;;;;;;2115671;28;20451;-71
2022/08/07 02:32:08;;;;;;;23.10;21.10;;;;;;;;;;2123306;27;20438;-71
2022/08/07 02:33:10;;;;;;;22.87;20.77;;;;;;;;;;2131917;27;20421;-71
2022/08/07 02:34:12;;;;;;;23.17;21.10;;;;;;;;;;2123250;28;20533;-71
2022/08/07 02:35:22;;;;;;;22.03;20.33;;;;;;;;;;2115777;28;20438;-71
2022/08/07 02:36:28;;;;;;;23.53;21.33;;;;;;;;;;2115475;28;20522;-71
2022/08/07 02:37:30;;;;;;;22.37;20.60;;;;;;;;;;2123325;28;20439;-71
2022/08/07 02:38:34;;;;;;;23.23;21.07;;;;;;;;;;2114944;28;21036;-71
2022/08/07 02:39:38;;;;;;;22.97;21.07;;;;;;;;;;2115479;28;20826;-71
2022/08/07 02:40:43;;;;;;;22.80;21.00;;;;;;;;;;2123185;28;20502;-71
2022/08/07 02:41:46;;;;;;;22.97;21.10;;;;;;;;;;2115034;28;20438;-71
2022/08/07 02:42:48;;;;;;;23.03;21.23;;;;;;;;;;2123313;27;20542;-71
2022/08/07 02:43:49;;;;;;;22.63;20.53;;;;;;;;;;2131882;27;20880;-71
2022/08/07 02:44:53;;;;;;;23.87;21.87;;;;;;;;;;2123188;28;20936;-71
2022/08/07 02:45:57;;;;;;;23.57;21.57;;;;;;;;;;2115167;28;20442;-71
2022/08/07 02:47:00;;;;;;;23.63;21.60;;;;;;;;;;2114844;28;20430;-71
2022/08/07 02:48:01;;;;;;;23.57;21.67;;;;;;;;;;2123005;28;20446;-70
2022/08/07 02:49:04;;;;;;;22.90;20.90;;;;;;;;;;2123180;28;20426;-71
2022/08/07 02:50:06;;;;;;;23.50;21.50;;;;;;;;;;2114812;28;20539;-71
2022/08/07 02:51:11;;;;;;;23.90;21.50;;;;;;;;;;2123154;28;20777;-71
2022/08/07 02:52:17;;;;;;;23.20;21.20;;;;;;;;;;2123136;28;20815;-71
2022/08/07 02:53:21;;;;;;;23.23;21.00;;;;;;;;;;2123847;27;20450;-71
2022/08/07 02:54:22;;;;;;;23.33;21.03;;;;;;;;;;2124074;27;20453;-71
2022/08/07 02:55:25;;;;;;;22.50;20.70;;;;;;;;;;2124867;27;20429;-71
2022/08/07 02:56:28;;;;;;;24.07;22.17;;;;;;;;;;2124852;27;20192;-71
2022/08/07 02:57:30;;;;;;;23.00;21.20;;;;;;;;;;2116546;27;20461;-71
2022/08/07 02:58:32;;;;;;;22.87;21.00;;;;;;;;;;2116659;28;20495;-71
2022/08/07 02:59:34;;;;;;;23.87;21.83;;;;;;;;;;2116400;28;20478;-71
2022/08/07 03:00:37;;;;;;;23.27;21.33;;;;;;;;;;2116557;27;20446;-71
2022/08/07 03:01:39;;;;;;;22.00;20.03;;;;;;;;;;2124765;27;20430;-70
2022/08/07 03:02:44;;;;;;;21.87;20.23;;;;;;;;;;2125413;27;20437;-71
2022/08/07 03:03:46;;;;;;;22.70;20.77;;;;;;;;;;2133443;27;20508;-71
2022/08/07 03:04:48;;;;;;;21.73;19.93;;;;;;;;;;2124752;27;20441;-71
2022/08/07 03:05:50;;;;;;;21.90;20.20;;;;;;;;;;2116263;28;20533;-71
2022/08/07 03:06:51;;;;;;;22.50;20.60;;;;;;;;;;2125020;27;20433;-71
2022/08/07 03:07:54;;;;;;;22.40;20.47;;;;;;;;;;2124722;27;20797;-71
2022/08/07 03:08:54;;;;;;;22.53;20.63;;;;;;;;;;2116402;27;20472;-71
2022/08/07 03:09:58;;;;;;;22.77;20.97;;;;;;;;;;2116303;28;20438;-71
2022/08/07 03:11:00;;;;;;;23.07;21.37;;;;;;;;;;2116307;28;20447;-71
2022/08/07 03:12:09;;;;;;;23.00;21.30;;;;;;;;;;2125637;27;20426;-71
2022/08/07 03:13:12;;;;;;;24.17;21.97;;;;;;;;;;2124970;27;20528;-71
2022/08/07 03:14:14;;;;;;;24.67;22.47;;;;;;;;;;2116216;28;20968;-71
2022/08/07 03:15:15;;;;;;;23.20;21.50;;;;;;;;;;2124709;27;20461;-71
2022/08/07 03:16:17;;;;;;;22.20;20.57;;;;;;;;;;2133586;27;20417;-71
2022/08/07 03:17:17;;;;;;;24.67;22.37;;;;;;;;;;2134114;27;20464;-71
2022/08/07 03:18:19;;;;;;;21.50;19.83;;;;;;;;;;2124611;27;20430;-71
2022/08/07 03:19:20;;;;;;;22.10;19.83;;;;;;;;;;2116182;28;20659;-71
2022/08/07 03:20:21;;;;;;;22.73;20.93;;;;;;;;;;2124649;27;20869;-71
2022/08/07 03:21:22;;;;;;;21.60;19.90;;;;;;;;;;2116143;28;20189;-71
2022/08/07 03:22:24;;;;;;;22.60;20.50;;;;;;;;;;2116111;28;20442;-71
2022/08/07 03:23:26;;;;;;;21.53;19.83;;;;;;;;;;2116167;28;20200;-71
2022/08/07 03:24:27;;;;;;;22.37;20.47;;;;;;;;;;2116364;27;20593;-71
2022/08/07 03:25:32;;;;;;;22.03;20.40;;;;;;;;;;2124728;27;20466;-71
2022/08/07 03:26:34;;;;;;;22.47;20.77;;;;;;;;;;2116208;28;20434;-71
2022/08/07 03:27:41;;;;;;;22.97;21.00;;;;;;;;;;2116715;27;20451;-71
2022/08/07 03:28:44;;;;;;;24.20;20.83;;;;;;;;;;2124551;27;20517;-71
2022/08/07 03:29:46;;;;;;;22.87;20.63;;;;;;;;;;2116218;27;20438;-71
2022/08/07 03:30:48;;;;;;;22.27;20.33;;;;;;;;;;2116123;27;20440;-71
2022/08/07 03:31:50;;;;;;;23.37;21.17;;;;;;;;;;2124694;27;20468;-71
2022/08/07 03:32:52;;;;;;;22.13;20.43;;;;;;;;;;2124545;27;20461;-71
2022/08/07 03:33:54;;;;;;;21.97;20.10;;;;;;;;;;2115617;28;20583;-71
2022/08/07 03:34:58;;;;;;;22.37;20.30;;;;;;;;;;2124772;27;20793;-71
2022/08/07 03:35:58;;;;;;;21.70;20.10;;;;;;;;;;2124539;27;20528;-71
2022/08/07 03:37:02;;;;;;;22.27;20.17;;;;;;;;;;2116200;28;20442;-71
2022/08/07 03:38:05;;;;;;;22.23;20.33;;;;;;;;;;2123733;27;20978;-71
2022/08/07 03:39:08;;;;;;;23.27;21.03;;;;;;;;;;2124677;27;20453;-71
2022/08/07 03:40:10;;;;;;;22.97;20.97;;;;;;;;;;2124458;27;20841;-71
2022/08/07 03:41:12;;;;;;;23.07;21.17;;;;;;;;;;2124674;27;20443;-71
2022/08/07 03:42:14;;;;;;;22.10;20.40;;;;;;;;;;2133773;27;20425;-71
2022/08/07 03:43:17;;;;;;;22.33;20.53;;;;;;;;;;2133678;27;20421;-71
2022/08/07 03:44:22;;;;;;;22.97;20.90;;;;;;;;;;2124491;27;20529;-71
2022/08/07 03:45:25;;;;;;;22.30;20.30;;;;;;;;;;2115949;28;20427;-71
2022/08/07 03:46:26;;;;;;;23.23;21.13;;;;;;;;;;2124412;27;20196;-71
2022/08/07 03:47:28;;;;;;;23.03;21.03;;;;;;;;;;2115952;28;20505;-71
2022/08/07 03:48:29;;;;;;;23.90;21.73;;;;;;;;;;2124324;27;20465;-71
2022/08/07 03:49:30;;;;;;;23.20;20.90;;;;;;;;;;2124515;27;20424;-71
2022/08/07 03:50:34;;;;;;;21.90;20.00;;;;;;;;;;2124482;27;20240;-71
2022/08/07 03:51:35;;;;;;;21.80;20.07;;;;;;;;;;2116136;27;20440;-71
2022/08/07 03:52:37;;;;;;;22.40;20.60;;;;;;;;;;2124394;27;20461;-71
2022/08/07 03:53:40;;;;;;;23.80;21.57;;;;;;;;;;2124359;27;20921;-71
2022/08/07 03:54:42;;;;;;;23.57;21.57;;;;;;;;;;2116155;28;20434;-71
2022/08/07 03:55:44;;;;;;;25.30;22.73;;;;;;;;;;2116125;27;20659;-71
2022/08/07 03:56:46;;;;;;;25.40;22.90;;;;;;;;;;2124369;27;20900;-71
2022/08/07 03:57:47;;;;;;;25.43;23.23;;;;;;;;;;2116038;27;20678;-71
2022/08/07 03:58:50;;;;;;;25.77;23.30;;;;;;;;;;2115836;28;20874;-71
2022/08/07 03:59:51;;;;;;;25.83;23.83;;;;;;;;;;2116185;27;20236;-71
2022/08/07 04:00:56;;;;;;;25.77;23.57;;;;;;;;;;2124442;27;20908;-71
2022/08/07 04:01:57;;;;;;;26.20;23.80;;;;;;;;;;2124299;27;20223;-71
2022/08/07 04:02:58;;;;;;;25.93;23.77;;;;;;;;;;2124330;27;20442;-71
2022/08/07 04:04:04;;;;;;;26.23;23.93;;;;;;;;;;2124378;27;20450;-71
2022/08/07 04:05:06;;;;;;;25.73;23.70;;;;;;;;;;2124503;27;20421;-71
2022/08/07 04:06:08;;;;;;;26.27;23.83;;;;;;;;;;2123575;27;20916;-71
2022/08/07 04:07:09;;;;;;;25.20;23.00;;;;;;;;;;2124789;27;20426;-71
2022/08/07 04:08:11;;;;;;;26.07;23.77;;;;;;;;;;2124201;27;20471;-71
2022/08/07 04:09:13;;;;;;;25.67;23.20;;;;;;;;;;2116379;28;20213;-71
2022/08/07 04:10:14;;;;;;;25.80;23.30;;;;;;;;;;2124473;27;20429;-71
2022/08/07 04:11:15;;;;;;;25.30;23.20;;;;;;;;;;2124272;27;20438;-71
2022/08/07 04:12:18;;;;;;;24.60;22.50;;;;;;;;;;2116100;27;20469;-71
2022/08/07 04:13:20;;;;;;;24.97;22.67;;;;;;;;;;2124276;27;20532;-71
2022/08/07 04:14:24;;;;;;;24.57;22.53;;;;;;;;;;2123646;27;20437;-71
2022/08/07 04:15:25;;;;;;;24.57;22.53;;;;;;;;;;2115888;28;20884;-71
2022/08/07 04:16:28;;;;;;;24.90;22.77;;;;;;;;;;2115901;27;20814;-71
2022/08/07 04:17:29;;;;;;;24.73;22.73;;;;;;;;;;2115753;28;20781;-71
2022/08/07 04:18:31;;;;;;;24.63;22.30;;;;;;;;;;2115655;28;20465;-71
2022/08/07 04:19:31;;;;;;;24.20;22.30;;;;;;;;;;2116160;27;20193;-71
2022/08/07 04:20:33;;;;;;;24.37;22.43;;;;;;;;;;2114733;28;20465;-71
2022/08/07 04:21:33;;;;;;;23.97;21.90;;;;;;;;;;2124154;27;20203;-71
2022/08/07 04:22:36;;;;;;;24.67;22.47;;;;;;;;;;2124126;27;20438;-71
2022/08/07 04:23:39;;;;;;;24.57;22.33;;;;;;;;;;2124319;27;20445;-71
2022/08/07 04:24:41;;;;;;;24.17;22.00;;;;;;;;;;2132813;27;20425;-71
2022/08/07 04:25:44;;;;;;;23.80;21.83;;;;;;;;;;2124170;27;20188;-71
2022/08/07 04:26:47;;;;;;;23.57;21.30;;;;;;;;;;2115854;27;20441;-71
2022/08/07 04:27:50;;;;;;;22.10;20.30;;;;;;;;;;2124931;27;20445;-71
2022/08/07 04:28:52;;;;;;;22.43;20.63;;;;;;;;;;2124145;27;20449;-71
2022/08/07 04:29:54;;;;;;;22.50;20.30;;;;;;;;;;2115679;28;20570;-71
2022/08/07 04:30:56;;;;;;;21.53;19.60;;;;;;;;;;2115809;28;20439;-71
2022/08/07 04:32:00;;;;;;;22.07;20.10;;;;;;;;;;2116200;27;20496;-71
2022/08/07 04:33:05;;;;;;;21.43;19.83;;;;;;;;;;2115598;28;20488;-71
2022/08/07 04:34:06;;;;;;;22.07;20.30;;;;;;;;;;2115637;27;20253;-71
2022/08/07 04:35:08;;;;;;;21.23;19.73;;;;;;;;;;2124001;27;20429;-71
2022/08/07 04:36:08;;;;;;;22.47;20.53;;;;;;;;;;2124104;27;20807;-71
2022/08/07 04:37:11;;;;;;;22.27;20.47;;;;;;;;;;2115312;28;20570;-71
2022/08/07 04:38:12;;;;;;;21.57;19.77;;;;;;;;;;2115993;28;20471;-71
2022/08/07 04:39:16;;;;;;;22.03;20.10;;;;;;;;;;2116851;28;20431;-71
2022/08/07 04:40:21;;;;;;;21.77;19.90;;;;;;;;;;2115496;28;20534;-71
2022/08/07 04:41:22;;;;;;;22.23;20.20;;;;;;;;;;2116106;28;20775;-71
2022/08/07 04:42:29;;;;;;;21.33;19.53;;;;;;;;;;2115719;28;20443;-71
2022/08/07 04:43:32;;;;;;;22.07;20.17;;;;;;;;;;2115304;27;20441;-71
2022/08/07 04:44:34;;;;;;;21.87;20.17;;;;;;;;;;2115889;27;20964;-71
2022/08/07 04:45:42;;;;;;;21.13;19.53;;;;;;;;;;2115641;28;20857;-71
2022/08/07 04:46:44;;;;;;;21.97;20.33;;;;;;;;;;2116228;28;20435;-71
2022/08/07 04:47:50;;;;;;;20.40;18.80;;;;;;;;;;2123821;27;20990;-71
2022/08/07 04:48:58;;;;;;;21.43;19.63;;;;;;;;;;2123887;27;20469;-71
2022/08/07 04:50:05;;;;;;;21.07;19.27;;;;;;;;;;2124820;27;20428;-71
2022/08/07 04:51:15;;;;;;;20.50;19.03;;;;;;;;;;2124237;27;20433;-71
2022/08/07 04:52:22;;;;;;;20.60;19.10;;;;;;;;;;2124543;27;20449;-71
2022/08/07 04:53:26;;;;;;;21.03;19.30;;;;;;;;;;2132622;27;20423;-71
2022/08/07 04:54:32;;;;;;;21.27;19.30;;;;;;;;;;2123810;27;20441;-71
2022/08/07 04:55:41;;;;;;;20.83;19.23;;;;;;;;;;2116467;27;20427;-71
2022/08/07 04:56:45;;;;;;;21.27;19.57;;;;;;;;;;2116337;27;20450;-71
2022/08/07 04:57:50;;;;;;;21.60;19.90;;;;;;;;;;2124262;27;20442;-71
2022/08/07 04:58:55;;;;;;;21.13;19.60;;;;;;;;;;2123811;27;20446;-71
2022/08/07 04:59:58;;;;;;;21.47;19.97;;;;;;;;;;2124413;27;20955;-71
2022/08/07 05:01:03;;;;;;;21.57;19.80;;;;;;;;;;2133215;27;20891;-71
2022/08/07 05:02:07;;;;;;;22.10;20.30;;;;;;;;;;2123807;27;20445;-71
2022/08/07 05:03:12;;;;;;;21.73;19.97;;;;;;;;;;2123829;27;21026;-71
2022/08/07 05:04:14;;;;;;;21.77;19.97;;;;;;;;;;2132463;27;20512;-71
2022/08/07 05:05:21;;;;;;;21.63;19.67;;;;;;;;;;2124129;27;20441;-71
2022/08/07 05:06:24;;;;;;;21.70;19.80;;;;;;;;;;2124553;27;20915;-71
2022/08/07 05:07:33;;;;;;;21.03;19.07;;;;;;;;;;2123933;27;20438;-71
2022/08/07 05:08:39;;;;;;;21.17;19.67;;;;;;;;;;2124125;27;20520;-71
2022/08/07 05:09:43;;;;;;;20.90;19.23;;;;;;;;;;2123800;27;20817;-71
2022/08/07 05:10:47;;;;;;;21.20;19.40;;;;;;;;;;2124180;27;20887;-71
2022/08/07 05:11:49;;;;;;;21.70;19.67;;;;;;;;;;2132559;27;20453;-71
2022/08/07 05:12:53;;;;;;;20.77;19.17;;;;;;;;;;2133018;27;20432;-71
2022/08/07 05:13:58;;;;;;;22.03;19.60;;;;;;;;;;2123674;27;20441;-71
2022/08/07 05:15:14;;;;;;;21.20;19.53;;;;;;;;;;2124371;27;20441;-71
2022/08/07 05:16:18;;;;;;;20.20;18.70;;;;;;;;;;2123771;27;20429;-71
2022/08/07 05:17:20;;;;;;;21.03;19.40;;;;;;;;;;2123301;27;20455;-71
2022/08/07 05:18:25;;;;;;;21.93;19.87;;;;;;;;;;2114737;27;20427;-71
2022/08/07 05:19:26;;;;;;;21.93;19.90;;;;;;;;;;2124230;27;20429;-71
2022/08/07 05:20:31;;;;;;;21.50;19.80;;;;;;;;;;2123732;27;20473;-71
2022/08/07 05:21:34;;;;;;;21.27;19.57;;;;;;;;;;2123674;27;20529;-71
2022/08/07 05:22:37;;;;;;;21.83;19.77;;;;;;;;;;2115511;28;20509;-71
2022/08/07 05:23:39;;;;;;;21.03;19.43;;;;;;;;;;2115501;27;20447;-71
2022/08/07 05:24:41;;;;;;;21.63;19.83;;;;;;;;;;2115192;28;20439;-71
2022/08/07 05:25:43;;;;;;;21.37;19.77;;;;;;;;;;2123849;27;20445;-72
2022/08/07 05:26:46;;;;;;;22.10;20.20;;;;;;;;;;2132456;27;20420;-71
2022/08/07 05:27:47;;;;;;;22.07;20.13;;;;;;;;;;2123667;27;20461;-71
2022/08/07 05:28:49;;;;;;;22.70;20.70;;;;;;;;;;2115064;28;20538;-71
2022/08/07 05:29:51;;;;;;;23.00;21.00;;;;;;;;;;2115428;27;20647;-71
2022/08/07 05:30:53;;;;;;;22.47;20.43;;;;;;;;;;2115152;28;20564;-71
2022/08/07 05:31:58;;;;;;;22.07;20.30;;;;;;;;;;2115279;27;20430;-71
2022/08/07 05:33:03;;;;;;;22.90;21.00;;;;;;;;;;2116021;27;20841;-71
2022/08/07 05:34:06;;;;;;;21.87;20.07;;;;;;;;;;2123958;27;20467;-71
2022/08/07 05:35:10;;;;;;;22.77;20.87;;;;;;;;;;2123614;27;20504;-71
2022/08/07 05:36:13;;;;;;;22.43;20.40;;;;;;;;;;2115070;28;20453;-71
2022/08/07 05:37:15;;;;;;;23.30;20.93;;;;;;;;;;2123754;27;20441;-71
2022/08/07 05:38:24;;;;;;;22.47;20.67;;;;;;;;;;2123542;27;20456;-71
2022/08/07 05:39:26;;;;;;;22.77;20.67;;;;;;;;;;2123506;27;20444;-71
2022/08/07 05:40:32;;;;;;;22.30;20.50;;;;;;;;;;2123572;27;20191;-71
2022/08/07 05:41:34;;;;;;;22.30;20.40;;;;;;;;;;2123670;27;20441;-71
2022/08/07 05:42:34;;;;;;;22.40;20.37;;;;;;;;;;2123587;27;20442;-71
2022/08/07 05:43:37;;;;;;;22.50;20.70;;;;;;;;;;2123320;27;20442;-71
2022/08/07 05:44:38;;;;;;;22.17;20.47;;;;;;;;;;2123585;27;20200;-71
2022/08/07 05:45:40;;;;;;;22.60;20.60;;;;;;;;;;2132316;27;20497;-71
2022/08/07 05:46:41;;;;;;;22.73;20.37;;;;;;;;;;2122723;27;20442;-71
2022/08/07 05:47:44;;;;;;;22.40;20.33;;;;;;;;;;2114574;28;20427;-71
2022/08/07 05:48:45;;;;;;;22.07;20.30;;;;;;;;;;2115003;28;20541;-71
2022/08/07 05:49:47;;;;;;;23.07;20.97;;;;;;;;;;2114873;28;20477;-71
2022/08/07 05:50:50;;;;;;;22.73;20.93;;;;;;;;;;2123456;27;20220;-71
2022/08/07 05:51:53;;;;;;;23.20;21.07;;;;;;;;;;2123987;27;20430;-71
2022/08/07 05:52:56;;;;;;;23.40;21.03;;;;;;;;;;2123405;27;20450;-71
2022/08/07 05:53:57;;;;;;;22.53;20.53;;;;;;;;;;2123410;27;20433;-71
2022/08/07 05:54:58;;;;;;;22.60;20.53;;;;;;;;;;2132256;27;20215;-71
2022/08/07 05:56:01;;;;;;;22.20;20.40;;;;;;;;;;2123567;27;20880;-71
2022/08/07 05:57:03;;;;;;;22.10;20.40;;;;;;;;;;2123394;27;20445;-71
2022/08/07 05:58:06;;;;;;;22.40;20.23;;;;;;;;;;2115249;28;21029;-71
2022/08/07 05:59:09;;;;;;;23.13;21.10;;;;;;;;;;2114846;28;20430;-71
2022/08/07 06:00:10;;;;;;;22.37;20.43;;;;;;;;;;2115115;28;20804;-71
2022/08/07 06:01:15;;;;;;;22.30;20.50;;;;;;;;;;2123910;27;20446;-71
2022/08/07 06:02:19;;;;;;;21.73;20.03;;;;;;;;;;2123522;27;20422;-71
2022/08/07 06:03:23;;;;;;;21.70;19.80;;;;;;;;;;2114642;28;20517;-71
2022/08/07 06:04:24;;;;;;;22.17;20.27;;;;;;;;;;2123488;27;20930;-71